Ansley, Mississippi
Current Conditions -  °F | °C
As of 10:50 AM on Saturday 25 Oct 2014 (Local Time) from KHSA Reporting Station
Clear Clear  
Wind Chill: 72°   Ceiling: Unl
Heat Index: 72°   Visibility: 10mi
Dew Point: 50°   Wind: 7mph
Humidity: 46%   Direction: 10°N
Pressure: 30.16"   Gusts: NA
Location:  30.2253°N, 89.4838°W
Report Text: KHSA 251550Z 01006KT 10SM CLR 22/10 A3016
Loading
Personal Weather Stations






























Interactive Weather Map
Tropical Storm Tracking
New forecast layout! Learn more

10-Day Weather Forecast

Advertisements
Track Severe Weather on mobile